Time;durP1;ratioP1;P1;durP2;ratioP2;P2;SDS_P1;SDS_P2;PMS_P1;PMS_P2;Temp;Humidity;BMP_temperature;BMP_pressure;BME280_temperature;BME280_humidity;BME280_pressure;Samples;Min_cycle;Max_cycle;Signal;HPM_P1;HPM_P2
2024/04/13 00:01:25;;;;;;;;;;;;;;;10.45;58.47;102044.24;107628;1254;110943;-64
2024/04/13 00:03:52;;;;;;;;;;;;;;;10.44;58.32;102046.32;107660;1250;107899;-62
2024/04/13 00:06:21;;;;;;;;;;;;;;;10.44;58.32;102043.28;107625;1251;108202;-63
2024/04/13 00:08:50;;;;;;;;;;;;;;;10.42;58.11;102046.45;107628;1250;97914;-63
2024/04/13 00:11:17;;;;;;;;;;;;;;;10.41;58.12;102046.16;107636;1251;97953;-64
2024/04/13 00:13:46;;;;;;;;;;;;;;;10.42;58.13;102046.44;107629;1251;111255;-64
2024/04/13 00:16:14;;;;;;;;;;;;;;;10.42;58.56;102044.48;107623;1251;107868;-64
2024/04/13 00:18:42;;;;;;;;;;;;;;;10.41;58.79;102043.85;107595;1250;107736;-64
2024/04/13 00:21:11;;;;;;;;;;;;;;;10.39;58.96;102043.45;107649;1251;97796;-64
2024/04/13 00:23:39;;;;;;;;;;;;;;;10.37;59.01;102043.36;107623;1251;97957;-63
2024/04/13 00:26:07;;;;;;;;;;;;;;;10.34;58.96;102044.41;107590;1251;111958;-64
2024/04/13 00:28:35;;;;;;;;;;;;;;;10.34;58.97;102047.47;107623;1251;107972;-65
2024/04/13 00:31:04;;;;;;;;;;;;;;;10.32;58.96;102048.13;107598;1255;107641;-64
2024/04/13 00:33:38;;;;;;;;;;;;;;;10.30;58.73;102047.76;107610;1251;97822;-63
2024/04/13 00:36:07;;;;;;;;;;;;;;;10.30;58.79;102051.52;107593;1253;97849;-63
2024/04/13 00:38:35;;;;;;;;;;;;;;;10.27;58.72;102048.30;107605;1253;111311;-65
2024/04/13 00:41:03;;;;;;;;;;;;;;;10.24;58.65;102045.45;107618;1254;108419;-65
2024/04/13 00:43:31;;;;;;;;;;;;;;;10.22;58.70;102044.33;107574;1254;108027;-65
2024/04/13 00:46:07;;;;;;;;;;;;;;;10.19;58.95;102043.11;107609;1254;97842;-62
2024/04/13 00:48:36;;;;;;;;;;;;;;;10.18;59.07;102044.23;107633;1253;97879;-64
2024/04/13 00:51:05;;;;;;;;;;;;;;;10.18;59.09;102048.20;107664;1254;112269;-64
2024/04/13 00:53:36;;;;;;;;;;;;;;;10.15;59.22;102047.66;107609;1254;107927;-63
2024/04/13 00:56:06;;;;;;;;;;;;;;;10.13;59.08;102044.91;107589;1254;108231;-64
2024/04/13 00:58:35;;;;;;;;;;;;;;;10.13;59.33;102044.77;107548;1254;97829;-63
2024/04/13 01:01:05;;;;;;;;;;;;;;;10.12;59.33;102047.52;107662;1252;97826;-64
2024/04/13 01:03:35;;;;;;;;;;;;;;;10.09;59.60;102044.27;107575;1254;111408;-63
2024/04/13 01:06:06;;;;;;;;;;;;;;;10.05;59.66;102037.02;107618;1253;109010;-63
2024/04/13 01:08:34;;;;;;;;;;;;;;;10.02;60.47;102038.98;107608;1252;107310;-64
2024/04/13 01:11:02;;;;;;;;;;;;;;;10.00;61.15;102037.54;107589;1253;97915;-65
2024/04/13 01:13:30;;;;;;;;;;;;;;;9.92;61.18;102041.33;107674;1254;97838;-62
2024/04/13 01:16:00;;;;;;;;;;;;;;;9.84;61.53;102037.83;107601;1254;110877;-63
2024/04/13 01:18:29;;;;;;;;;;;;;;;9.81;61.28;102034.13;107562;1251;108737;-64
2024/04/13 01:20:58;;;;;;;;;;;;;;;9.81;61.53;102031.41;107591;1254;108808;-63
2024/04/13 01:23:29;;;;;;;;;;;;;;;9.82;62.07;102028.65;107630;1252;97825;-63
2024/04/13 01:25:58;;;;;;;;;;;;;;;9.83;61.75;102028.45;107608;1254;97736;-64
2024/04/13 01:28:29;;;;;;;;;;;;;;;9.84;61.62;102025.68;107562;1254;111745;-63
2024/04/13 01:31:00;;;;;;;;;;;;;;;9.83;61.65;102020.89;107680;1254;106446;-63
2024/04/13 01:33:28;;;;;;;;;;;;;;;9.81;62.13;102026.26;107558;1253;108451;-65
2024/04/13 01:36:00;;;;;;;;;;;;;;;9.76;61.89;102026.41;107550;1251;97817;-64
2024/04/13 01:38:29;;;;;;;;;;;;;;;9.75;62.11;102029.13;107609;1253;97843;-64
2024/04/13 01:40:57;;;;;;;;;;;;;;;9.75;61.98;102027.52;107602;1253;111925;-64
2024/04/13 01:43:25;;;;;;;;;;;;;;;9.73;62.01;102021.55;107574;1254;107858;-64
2024/04/13 01:45:52;;;;;;;;;;;;;;;9.70;62.23;102023.67;107552;1254;106965;-65
2024/04/13 01:48:20;;;;;;;;;;;;;;;9.70;62.37;102024.44;107524;1254;97815;-65
2024/04/13 01:50:49;;;;;;;;;;;;;;;9.69;62.53;102027.33;107564;1254;97835;-65
2024/04/13 01:53:17;;;;;;;;;;;;;;;9.68;62.50;102031.70;107553;1254;111801;-64
2024/04/13 01:55:46;;;;;;;;;;;;;;;9.68;63.15;102032.94;107531;1254;106882;-64
2024/04/13 01:58:14;;;;;;;;;;;;;;;9.66;63.16;102032.91;107552;1254;108442;-64
2024/04/13 02:00:43;;;;;;;;;;;;;;;9.63;62.93;102033.15;107526;1253;97809;-64
2024/04/13 02:03:11;;;;;;;;;;;;;;;9.62;62.95;102033.92;107580;1252;97823;-65
2024/04/13 02:05:43;;;;;;;;;;;;;;;9.61;64.03;102032.36;107461;1253;112024;-63
2024/04/13 02:08:11;;;;;;;;;;;;;;;9.57;63.85;102035.27;107497;1254;107947;-63
2024/04/13 02:10:39;;;;;;;;;;;;;;;9.59;63.69;102035.02;107456;1254;108471;-63
2024/04/13 02:13:08;;;;;;;;;;;;;;;9.60;63.60;102029.58;107485;1253;97834;-63
2024/04/13 02:15:36;;;;;;;;;;;;;;;9.61;63.76;102028.27;107583;1253;97858;-63
2024/04/13 02:18:04;;;;;;;;;;;;;;;9.59;63.79;102030.30;107570;1253;111058;-65
2024/04/13 02:20:34;;;;;;;;;;;;;;;9.60;63.97;102030.83;107530;1253;107988;-63
2024/04/13 02:23:04;;;;;;;;;;;;;;;9.61;63.88;102037.38;107544;1253;108246;-64
2024/04/13 02:25:33;;;;;;;;;;;;;;;9.60;63.55;102035.42;107500;1254;97938;-64
2024/04/13 02:28:04;;;;;;;;;;;;;;;9.57;63.72;102039.55;107550;1252;97843;-65
2024/04/13 02:30:32;;;;;;;;;;;;;;;9.55;63.75;102044.55;107419;1254;111378;-64
2024/04/13 02:33:00;;;;;;;;;;;;;;;9.56;63.97;102043.61;107545;1254;108321;-64
2024/04/13 02:35:29;;;;;;;;;;;;;;;9.55;63.76;102043.80;107545;1252;108560;-64
2024/04/13 02:37:57;;;;;;;;;;;;;;;9.57;63.84;102041.02;107490;1254;97873;-64
2024/04/13 02:40:27;;;;;;;;;;;;;;;9.57;63.49;102043.92;107551;1252;97714;-64
2024/04/13 02:42:57;;;;;;;;;;;;;;;9.55;63.65;102042.73;107523;1256;112075;-65
2024/04/13 02:45:25;;;;;;;;;;;;;;;9.54;63.66;102044.24;107626;1256;108402;-64
2024/04/13 02:47:53;;;;;;;;;;;;;;;9.49;63.76;102046.02;107583;1254;107493;-65
2024/04/13 02:50:21;;;;;;;;;;;;;;;9.43;63.69;102044.80;107577;1254;97844;-64
2024/04/13 02:52:52;;;;;;;;;;;;;;;9.39;63.86;102043.79;107577;1254;97806;-65
2024/04/13 02:55:20;;;;;;;;;;;;;;;9.36;63.82;102040.89;107626;1254;111639;-64
2024/04/13 02:57:48;;;;;;;;;;;;;;;9.37;64.07;102046.23;107589;1253;107490;-64
2024/04/13 03:00:16;;;;;;;;;;;;;;;9.35;64.01;102046.55;107603;1256;108400;-65
2024/04/13 03:02:44;;;;;;;;;;;;;;;9.31;64.03;102048.20;107562;1254;97826;-66
2024/04/13 03:05:12;;;;;;;;;;;;;;;9.29;64.11;102045.86;107576;1256;97752;-65
2024/04/13 03:07:40;;;;;;;;;;;;;;;9.27;64.30;102047.02;107447;1254;112425;-65
2024/04/13 03:10:09;;;;;;;;;;;;;;;9.24;64.12;102047.92;107494;1254;108365;-64
2024/04/13 03:12:36;;;;;;;;;;;;;;;9.16;64.24;102052.20;107602;1253;106799;-65
2024/04/13 03:15:05;;;;;;;;;;;;;;;9.12;64.33;102048.86;107545;1254;98005;-65
2024/04/13 03:17:33;;;;;;;;;;;;;;;9.11;64.40;102048.90;107537;1253;97822;-64
2024/04/13 03:20:01;;;;;;;;;;;;;;;9.10;64.51;102047.77;107510;1254;111792;-65
2024/04/13 03:22:29;;;;;;;;;;;;;;;9.05;64.50;102045.66;107544;1254;108512;-63
2024/04/13 03:24:57;;;;;;;;;;;;;;;9.03;64.72;102044.77;107412;1254;107705;-65
2024/04/13 03:27:25;;;;;;;;;;;;;;;9.02;64.80;102044.79;107496;1254;97905;-65
2024/04/13 03:29:54;;;;;;;;;;;;;;;9.00;65.30;102049.75;107512;1254;97909;-63
2024/04/13 03:32:22;;;;;;;;;;;;;;;8.95;65.63;102048.30;107546;1253;111858;-65
2024/04/13 03:34:50;;;;;;;;;;;;;;;8.93;65.64;102046.27;107570;1254;107838;-64
2024/04/13 03:37:18;;;;;;;;;;;;;;;8.93;65.54;102049.46;107596;1253;108188;-65
2024/04/13 03:39:46;;;;;;;;;;;;;;;8.94;65.57;102046.55;107595;1252;97828;-65
2024/04/13 03:42:14;;;;;;;;;;;;;;;8.94;65.48;102045.30;107622;1253;97706;-66
2024/04/13 03:44:42;;;;;;;;;;;;;;;8.94;65.13;102046.36;107666;1251;110836;-65
2024/04/13 03:47:10;;;;;;;;;;;;;;;8.93;65.12;102051.95;107599;1251;107609;-65
2024/04/13 03:49:38;;;;;;;;;;;;;;;8.92;65.31;102051.48;107567;1254;108138;-64
2024/04/13 03:52:07;;;;;;;;;;;;;;;8.92;65.31;102048.82;107543;1251;98617;-64
2024/04/13 03:54:35;;;;;;;;;;;;;;;8.94;65.29;102049.58;107637;1251;97843;-64
2024/04/13 03:57:03;;;;;;;;;;;;;;;8.97;65.21;102051.73;107613;1251;110644;-64
2024/04/13 03:59:31;;;;;;;;;;;;;;;9.00;65.23;102049.93;107630;1251;107782;-63
2024/04/13 04:02:00;;;;;;;;;;;;;;;9.06;65.31;102050.45;107594;1251;108189;-65
2024/04/13 04:04:30;;;;;;;;;;;;;;;9.14;65.31;102050.38;107585;1254;97707;-65
2024/04/13 04:06:59;;;;;;;;;;;;;;;9.22;65.08;102052.90;107635;1254;97827;-63
2024/04/13 04:09:27;;;;;;;;;;;;;;;9.30;65.09;102050.43;107609;1254;111441;-63
2024/04/13 04:11:55;;;;;;;;;;;;;;;9.36;65.18;102055.02;107602;1254;108461;-63
2024/04/13 04:14:23;;;;;;;;;;;;;;;9.44;65.06;102053.84;107657;1255;108257;-64
2024/04/13 04:16:53;;;;;;;;;;;;;;;9.52;64.86;102053.31;107588;1253;97843;-64
2024/04/13 04:19:22;;;;;;;;;;;;;;;9.58;64.69;102054.01;107622;1254;97708;-64
2024/04/13 04:21:50;;;;;;;;;;;;;;;9.64;64.51;102054.73;107592;1254;110560;-65
2024/04/13 04:24:18;;;;;;;;;;;;;;;9.70;64.30;102053.09;107628;1254;107337;-64
2024/04/13 04:26:46;;;;;;;;;;;;;;;9.78;64.19;102054.92;107586;1254;108611;-65
2024/04/13 04:29:15;;;;;;;;;;;;;;;9.87;64.15;102055.02;107568;1254;97850;-65
2024/04/13 04:31:43;;;;;;;;;;;;;;;9.97;64.13;102051.71;107636;1254;97736;-65
2024/04/13 04:34:11;;;;;;;;;;;;;;;10.06;63.96;102055.92;107554;1254;111381;-65
2024/04/13 04:36:40;;;;;;;;;;;;;;;10.14;63.84;102054.88;107664;1251;108734;-65
2024/04/13 04:39:08;;;;;;;;;;;;;;;10.25;63.78;102057.23;107563;1251;107072;-65
2024/04/13 04:41:37;;;;;;;;;;;;;;;10.39;63.65;102054.84;107622;1257;97905;-64
2024/04/13 04:44:05;;;;;;;;;;;;;;;10.55;63.44;102052.36;107505;1254;97899;-64
2024/04/13 04:46:33;;;;;;;;;;;;;;;10.71;63.48;102055.59;107611;1254;110978;-64
2024/04/13 04:49:01;;;;;;;;;;;;;;;10.88;63.16;102051.24;107546;1254;107962;-63
2024/04/13 04:51:29;;;;;;;;;;;;;;;11.03;63.03;102044.79;107605;1254;107985;-65
2024/04/13 04:53:58;;;;;;;;;;;;;;;11.16;62.73;102050.52;107617;1257;98750;-63
2024/04/13 04:56:26;;;;;;;;;;;;;;;11.28;62.42;102049.83;107630;1254;97902;-65
2024/04/13 04:58:56;;;;;;;;;;;;;;;11.41;62.16;102048.01;107626;1252;111344;-64
2024/04/13 05:01:24;;;;;;;;;;;;;;;11.54;61.93;102047.24;107605;1256;108615;-65
2024/04/13 05:03:52;;;;;;;;;;;;;;;11.66;61.06;102047.91;107597;1253;108308;-64
2024/04/13 05:06:20;;;;;;;;;;;;;;;11.72;60.90;102052.41;107567;1254;97850;-64
2024/04/13 05:08:48;;;;;;;;;;;;;;;11.82;60.75;102052.66;107595;1253;97713;-64
2024/04/13 05:11:16;;;;;;;;;;;;;;;11.89;60.47;102048.52;107550;1254;111327;-64
2024/04/13 05:13:44;;;;;;;;;;;;;;;11.96;60.28;102049.14;107534;1256;107609;-64
2024/04/13 05:16:12;;;;;;;;;;;;;;;12.01;60.14;102047.63;107500;1256;107472;-65
2024/04/13 05:18:40;;;;;;;;;;;;;;;12.08;59.89;102052.34;107592;1256;97958;-63
2024/04/13 05:21:08;;;;;;;;;;;;;;;12.16;59.93;102051.25;107532;1256;97891;-63
2024/04/13 05:23:36;;;;;;;;;;;;;;;12.24;59.84;102053.16;107554;1254;111825;-63
2024/04/13 05:26:04;;;;;;;;;;;;;;;12.31;59.27;102052.45;107539;1253;108037;-64
2024/04/13 05:28:32;;;;;;;;;;;;;;;12.34;58.40;102046.82;107507;1256;108532;-64
2024/04/13 05:31:02;;;;;;;;;;;;;;;12.40;58.29;102041.37;107523;1254;97822;-64
2024/04/13 05:33:30;;;;;;;;;;;;;;;12.40;57.86;102048.19;107522;1254;97714;-64
2024/04/13 05:35:58;;;;;;;;;;;;;;;12.40;57.78;102048.37;107537;1254;111499;-66
2024/04/13 05:38:31;;;;;;;;;;;;;;;12.42;57.51;102046.27;107625;1254;108567;-63
2024/04/13 05:40:59;;;;;;;;;;;;;;;12.46;57.34;102043.77;107630;1254;108056;-64
2024/04/13 05:43:28;;;;;;;;;;;;;;;12.51;57.12;102041.80;107635;1256;97810;-63
2024/04/13 05:45:56;;;;;;;;;;;;;;;12.55;57.24;102039.49;107510;1256;97837;-63
2024/04/13 05:48:24;;;;;;;;;;;;;;;12.63;57.16;102042.13;107547;1254;111716;-63
2024/04/13 05:50:56;;;;;;;;;;;;;;;12.70;56.93;102045.36;107547;1254;107765;-64
2024/04/13 05:53:28;;;;;;;;;;;;;;;12.77;56.68;102049.33;107604;1253;108741;-64
2024/04/13 05:55:57;;;;;;;;;;;;;;;12.84;56.19;102055.10;107528;1253;97848;-64
2024/04/13 05:58:25;;;;;;;;;;;;;;;12.91;56.16;102053.97;107638;1256;98488;-63
2024/04/13 06:00:53;;;;;;;;;;;;;;;12.97;55.91;102053.51;107609;1254;111735;-63
2024/04/13 06:03:21;;;;;;;;;;;;;;;13.06;55.78;102049.59;107634;1254;107491;-64
2024/04/13 06:05:48;;;;;;;;;;;;;;;13.14;55.49;102046.96;107603;1253;107725;-63
2024/04/13 06:08:17;;;;;;;;;;;;;;;13.22;55.26;102045.98;107568;1254;97826;-64
2024/04/13 06:10:45;;;;;;;;;;;;;;;13.30;55.01;102044.09;107589;1253;97727;-63
2024/04/13 06:13:16;;;;;;;;;;;;;;;13.41;54.99;102042.34;107609;1255;110893;-64
2024/04/13 06:15:44;;;;;;;;;;;;;;;13.52;55.21;102038.04;107593;1255;108717;-64
2024/04/13 06:18:13;;;;;;;;;;;;;;;13.63;54.98;102040.73;107583;1254;107215;-64
2024/04/13 06:20:41;;;;;;;;;;;;;;;13.77;54.90;102036.96;107600;1255;97838;-63
2024/04/13 06:23:09;;;;;;;;;;;;;;;13.88;54.67;102039.43;107608;1254;97925;-63
2024/04/13 06:25:37;;;;;;;;;;;;;;;14.00;54.19;102037.42;107614;1256;111817;-64
2024/04/13 06:28:06;;;;;;;;;;;;;;;14.09;54.25;102033.94;107613;1254;108123;-63
2024/04/13 06:30:34;;;;;;;;;;;;;;;14.18;54.09;102033.61;107563;1255;108791;-64
2024/04/13 06:33:02;;;;;;;;;;;;;;;14.23;53.85;102031.54;107581;1255;97819;-64
2024/04/13 06:35:30;;;;;;;;;;;;;;;14.25;53.57;102030.06;107620;1251;98619;-64
2024/04/13 06:37:58;;;;;;;;;;;;;;;14.33;53.51;102033.25;107609;1257;111628;-65
2024/04/13 06:40:26;;;;;;;;;;;;;;;14.37;53.51;102031.97;107628;1251;108336;-62
2024/04/13 06:42:54;;;;;;;;;;;;;;;14.39;53.34;102036.66;107561;1254;108683;-64
2024/04/13 06:45:22;;;;;;;;;;;;;;;14.40;53.36;102034.75;107556;1255;97819;-64
2024/04/13 06:47:51;;;;;;;;;;;;;;;14.44;53.36;102031.91;107584;1256;97851;-63
2024/04/13 06:50:19;;;;;;;;;;;;;;;14.52;53.49;102030.11;107610;1255;111233;-65
2024/04/13 06:52:47;;;;;;;;;;;;;;;14.64;53.31;102029.52;107601;1251;108490;-64
2024/04/13 06:55:16;;;;;;;;;;;;;;;14.73;53.06;102031.14;107557;1256;107633;-65
2024/04/13 06:57:45;;;;;;;;;;;;;;;14.81;53.01;102033.88;107527;1257;97869;-64
2024/04/13 07:00:13;;;;;;;;;;;;;;;14.95;52.96;102033.01;107594;1256;97720;-64
2024/04/13 07:02:44;;;;;;;;;;;;;;;15.08;52.86;102034.94;107635;1254;111410;-64
2024/04/13 07:05:11;;;;;;;;;;;;;;;15.16;52.50;102036.17;107608;1256;107626;-63
2024/04/13 07:07:39;;;;;;;;;;;;;;;15.21;52.07;102038.73;107583;1251;107936;-64
2024/04/13 07:10:08;;;;;;;;;;;;;;;15.26;52.24;102038.62;107647;1251;97881;-63
2024/04/13 07:12:36;;;;;;;;;;;;;;;15.30;52.14;102035.35;107594;1251;97733;-64
2024/04/13 07:15:05;;;;;;;;;;;;;;;15.33;52.10;102032.19;107616;1254;110894;-65
2024/04/13 07:17:33;;;;;;;;;;;;;;;15.43;52.03;102034.09;107647;1251;107508;-65
2024/04/13 07:20:04;;;;;;;;;;;;;;;15.47;52.03;102034.18;107612;1251;108663;-65
2024/04/13 07:22:33;;;;;;;;;;;;;;;15.58;51.93;102028.37;107528;1253;97823;-63
2024/04/13 07:25:01;;;;;;;;;;;;;;;15.65;51.82;102023.73;107614;1251;98383;-63
2024/04/13 07:27:30;;;;;;;;;;;;;;;15.70;51.73;102026.45;107632;1251;111361;-64
2024/04/13 07:29:58;;;;;;;;;;;;;;;15.73;51.77;102027.81;107570;1255;108267;-63
2024/04/13 07:32:26;;;;;;;;;;;;;;;15.75;51.93;102024.27;107568;1251;108124;-63
2024/04/13 07:34:54;;;;;;;;;;;;;;;15.84;51.95;102027.30;107563;1256;97812;-63
2024/04/13 07:37:22;;;;;;;;;;;;;;;15.93;51.96;102022.90;107581;1254;97721;-64
2024/04/13 07:39:50;;;;;;;;;;;;;;;16.04;51.89;102018.98;107636;1254;112335;-64
2024/04/13 07:42:18;;;;;;;;;;;;;;;16.17;51.76;102019.80;107619;1255;107986;-63
2024/04/13 07:44:46;;;;;;;;;;;;;;;16.26;51.72;102014.95;107589;1254;107745;-64
2024/04/13 07:47:15;;;;;;;;;;;;;;;16.35;51.62;102004.55;107675;1255;97909;-64
2024/04/13 07:49:43;;;;;;;;;;;;;;;16.43;51.40;101997.81;107610;1254;97912;-65
2024/04/13 07:52:11;;;;;;;;;;;;;;;16.49;51.11;101996.71;107625;1257;111993;-64
2024/04/13 07:54:39;;;;;;;;;;;;;;;16.59;51.09;101991.50;107581;1254;108655;-64
2024/04/13 07:57:07;;;;;;;;;;;;;;;16.72;51.21;101988.95;107503;1257;107348;-65
2024/04/13 07:59:35;;;;;;;;;;;;;;;16.86;51.09;101983.41;107479;1254;264121;-64
2024/04/13 08:02:03;;;;;;;;;;;;;;;17.03;50.76;101979.84;107638;1255;97817;-64
2024/04/13 08:04:31;;;;;;;;;;;;;;;17.19;50.64;101979.56;107594;1255;111236;-62
2024/04/13 08:06:59;;;;;;;;;;;;;;;17.33;50.28;101977.32;107616;1254;107844;-66
2024/04/13 08:09:28;;;;;;;;;;;;;;;17.41;49.49;101978.02;107595;1256;108830;-63
2024/04/13 08:11:57;;;;;;;;;;;;;;;17.49;49.50;101983.02;107553;1256;97826;-64
2024/04/13 08:14:25;;;;;;;;;;;;;;;17.60;49.02;101981.91;107592;1254;97746;-63
2024/04/13 08:16:53;;;;;;;;;;;;;;;17.72;48.56;101979.30;107633;1256;110847;-63
2024/04/13 08:19:21;;;;;;;;;;;;;;;17.85;48.79;101974.11;107613;1255;108302;-63
2024/04/13 08:21:51;;;;;;;;;;;;;;;18.02;48.86;101970.09;107618;1254;107888;-64
2024/04/13 08:24:20;;;;;;;;;;;;;;;18.19;48.07;101968.36;107664;1251;97708;-63
2024/04/13 08:26:48;;;;;;;;;;;;;;;18.34;47.57;101966.48;107540;1251;97938;-64
2024/04/13 08:29:16;;;;;;;;;;;;;;;18.46;47.39;101965.04;107568;1254;112025;-65
2024/04/13 08:31:45;;;;;;;;;;;;;;;18.65;47.41;101952.48;107637;1251;108295;-63
2024/04/13 08:34:16;;;;;;;;;;;;;;;18.86;47.39;101945.73;107570;1251;108130;-64
2024/04/13 08:36:44;;;;;;;;;;;;;;;19.06;46.92;101947.86;107601;1254;97922;-64
2024/04/13 08:39:12;;;;;;;;;;;;;;;19.21;46.63;101947.14;107625;1254;97869;-64
2024/04/13 08:41:44;;;;;;;;;;;;;;;19.35;45.80;101943.25;107624;1255;111638;-63
2024/04/13 08:44:12;;;;;;;;;;;;;;;19.52;45.51;101936.01;107603;1254;108067;-63
2024/04/13 08:46:44;;;;;;;;;;;;;;;19.69;45.50;101936.10;107629;1254;108610;-65
2024/04/13 08:49:14;;;;;;;;;;;;;;;19.85;44.75;101934.27;107598;1257;97838;-63
2024/04/13 08:51:45;;;;;;;;;;;;;;;20.07;44.66;101926.50;107642;1252;97769;-63
2024/04/13 08:54:16;;;;;;;;;;;;;;;20.29;44.20;101927.52;107682;1254;112123;-63
2024/04/13 08:56:44;;;;;;;;;;;;;;;20.52;43.49;101925.70;107675;1251;108796;-63
2024/04/13 08:59:13;;;;;;;;;;;;;;;20.77;43.36;101922.96;107665;1254;106500;-65
2024/04/13 09:01:43;;;;;;;;;;;;;;;20.93;42.33;101918.97;107612;1254;97819;-63
2024/04/13 09:04:14;;;;;;;;;;;;;;;21.09;41.88;101911.24;107672;1254;97923;-64
2024/04/13 09:06:43;;;;;;;;;;;;;;;21.23;41.35;101910.98;107637;1253;112187;-64
2024/04/13 09:09:13;;;;;;;;;;;;;;;21.53;41.82;101901.48;107623;1256;108324;-65
2024/04/13 09:11:41;;;;;;;;;;;;;;;21.81;40.55;101907.10;107652;1254;107642;-65
2024/04/13 09:14:11;;;;;;;;;;;;;;;22.02;39.48;101901.46;107594;1253;97825;-64
2024/04/13 09:16:40;;;;;;;;;;;;;;;22.18;39.04;101904.34;107581;1253;97739;-64
2024/04/13 09:19:09;;;;;;;;;;;;;;;22.25;38.81;101897.84;107662;1254;110673;-64
2024/04/13 09:21:40;;;;;;;;;;;;;;;22.46;38.74;101895.32;107638;1254;108564;-64
2024/04/13 09:24:09;;;;;;;;;;;;;;;22.83;38.69;101895.33;107620;1254;108867;-63
2024/04/13 09:26:41;;;;;;;;;;;;;;;23.31;37.88;101885.60;107670;1251;98088;-65
2024/04/13 09:29:11;;;;;;;;;;;;;;;23.80;38.03;101875.33;107534;1251;97806;-66
2024/04/13 09:31:40;;;;;;;;;;;;;;;24.41;37.07;101874.46;107513;1251;111573;-64
2024/04/13 09:34:16;;;;;;;;;;;;;;;24.65;35.28;101871.17;107574;1254;107810;-65
2024/04/13 09:36:44;;;;;;;;;;;;;;;25.03;34.77;101866.11;107575;1251;107353;-63
2024/04/13 09:39:22;;;;;;;;;;;;;;;25.55;35.04;101858.59;107496;1251;97845;-63
2024/04/13 09:41:51;;;;;;;;;;;;;;;26.46;34.10;101858.89;107533;1254;97825;-64
2024/04/13 09:44:28;;;;;;;;;;;;;;;27.17;33.64;101854.94;107498;1251;111712;-64
2024/04/13 09:46:57;;;;;;;;;;;;;;;27.79;31.60;101849.57;107525;1254;109051;-65
2024/04/13 09:49:25;;;;;;;;;;;;;;;28.24;31.11;101846.83;107509;1251;107087;-64
2024/04/13 09:51:55;;;;;;;;;;;;;;;28.62;29.68;101845.52;107514;1251;97854;-64
2024/04/13 09:54:26;;;;;;;;;;;;;;;28.89;29.39;101841.04;107493;1251;97714;-64
2024/04/13 09:56:56;;;;;;;;;;;;;;;29.20;28.75;101837.25;107564;1251;112066;-65
2024/04/13 09:59:24;;;;;;;;;;;;;;;29.60;28.88;101832.23;107610;1254;108336;-65
2024/04/13 10:01:52;;;;;;;;;;;;;;;29.74;26.86;101834.24;107628;1256;108000;-65
2024/04/13 10:04:20;;;;;;;;;;;;;;;29.29;26.69;101831.16;107600;1254;97915;-64
2024/04/13 10:06:50;;;;;;;;;;;;;;;29.35;27.20;101825.27;107709;1253;97909;-64
2024/04/13 10:09:19;;;;;;;;;;;;;;;29.92;27.69;101821.10;107651;1254;111827;-65
2024/04/13 10:11:50;;;;;;;;;;;;;;;30.37;26.55;101819.04;107673;1253;108681;-65
2024/04/13 10:14:20;;;;;;;;;;;;;;;30.18;25.16;101822.60;107607;1254;108355;-66
2024/04/13 10:16:49;;;;;;;;;;;;;;;30.10;26.24;101812.77;107637;1252;97951;-66
2024/04/13 10:19:19;;;;;;;;;;;;;;;30.98;26.75;101804.27;107653;1254;97733;-66
2024/04/13 10:21:57;;;;;;;;;;;;;;;31.33;24.91;101804.59;107653;1253;112217;-65
2024/04/13 10:24:28;;;;;;;;;;;;;;;30.93;25.11;101797.58;107623;1254;108081;-65
2024/04/13 10:27:05;;;;;;;;;;;;;;;30.55;24.84;101799.46;107650;1251;107669;-65
2024/04/13 10:29:40;;;;;;;;;;;;;;;30.28;25.83;101800.30;107648;1253;97820;-64
2024/04/13 10:32:10;;;;;;;;;;;;;;;29.65;25.72;101799.38;107658;1251;97717;-65
2024/04/13 10:34:39;;;;;;;;;;;;;;;28.88;26.51;101792.81;107674;1254;111208;-65
2024/04/13 10:37:25;;;;;;;;;;;;;;;28.43;26.72;101795.88;107651;1251;108618;-66
2024/04/13 10:39:57;;;;;;;;;;;;;;;27.99;27.45;101794.86;107629;1257;108284;-65
2024/04/13 10:42:37;;;;;;;;;;;;;;;27.77;27.88;101796.09;107618;1256;97903;-65
2024/04/13 10:45:09;;;;;;;;;;;;;;;27.49;28.16;101790.10;107614;1251;97822;-65
2024/04/13 10:47:41;;;;;;;;;;;;;;;28.44;27.60;101778.69;107624;1254;111392;-65
2024/04/13 10:50:10;;;;;;;;;;;;;;;29.12;27.16;101773.86;107654;1252;107406;-65
2024/04/13 10:52:38;;;;;;;;;;;;;;;29.64;24.77;101772.91;107624;1256;108482;-64
2024/04/13 10:55:10;;;;;;;;;;;;;;;29.69;25.21;101772.52;107574;1253;97829;-64
2024/04/13 10:57:39;;;;;;;;;;;;;;;29.75;25.57;101764.13;107571;1251;97848;-65
2024/04/13 11:00:08;;;;;;;;;;;;;;;29.38;25.32;101757.00;107523;1251;112215;-64
2024/04/13 11:02:39;;;;;;;;;;;;;;;29.40;25.86;101756.05;107565;1251;106256;-64
2024/04/13 11:05:07;;;;;;;;;;;;;;;30.16;25.28;101753.35;107536;1251;107787;-66
2024/04/13 11:07:35;;;;;;;;;;;;;;;30.35;24.75;101747.69;107546;1252;97847;-65
2024/04/13 11:10:04;;;;;;;;;;;;;;;30.38;25.20;101744.37;107656;1254;98017;-65
2024/04/13 11:12:32;;;;;;;;;;;;;;;30.71;24.99;101747.23;107673;1254;112135;-64
2024/04/13 11:15:00;;;;;;;;;;;;;;;31.22;24.51;101736.16;107684;1253;106875;-65
2024/04/13 11:17:28;;;;;;;;;;;;;;;31.78;23.67;101735.38;107625;1255;108539;-65
2024/04/13 11:19:57;;;;;;;;;;;;;;;32.25;24.28;101727.42;107597;1254;97845;-66
2024/04/13 11:22:26;;;;;;;;;;;;;;;32.90;23.38;101727.58;107651;1252;97707;-65
2024/04/13 11:24:55;;;;;;;;;;;;;;;32.98;22.20;101725.70;107650;1254;111283;-65
2024/04/13 11:27:23;;;;;;;;;;;;;;;32.97;22.13;101722.23;107632;1254;107343;-64
2024/04/13 11:29:52;;;;;;;;;;;;;;;33.13;22.61;101713.21;107588;1253;107963;-65
2024/04/13 11:32:22;;;;;;;;;;;;;;;33.06;22.04;101706.08;107601;1253;97940;-65
2024/04/13 11:34:53;;;;;;;;;;;;;;;33.53;21.48;101703.17;107640;1256;97848;-66
2024/04/13 11:37:21;;;;;;;;;;;;;;;33.95;21.02;101694.92;107631;1256;111473;-64
2024/04/13 11:39:50;;;;;;;;;;;;;;;33.95;20.41;101691.85;107569;1254;107836;-64
2024/04/13 11:42:18;;;;;;;;;;;;;;;33.51;20.96;101690.44;107613;1251;107446;-65
2024/04/13 11:44:48;;;;;;;;;;;;;;;33.40;21.01;101691.14;107575;1251;97876;-65
2024/04/13 11:47:16;;;;;;;;;;;;;;;33.21;21.79;101683.95;107623;1254;97856;-65
2024/04/13 11:49:44;;;;;;;;;;;;;;;33.48;20.86;101690.30;107611;1256;112103;-65
2024/04/13 11:52:12;;;;;;;;;;;;;;;32.88;20.41;101687.48;107620;1254;107799;-64
2024/04/13 11:54:41;;;;;;;;;;;;;;;32.34;21.22;101679.45;107630;1252;108524;-64
2024/04/13 11:57:11;;;;;;;;;;;;;;;31.83;21.46;101676.91;107595;1254;97875;-66
2024/04/13 11:59:39;;;;;;;;;;;;;;;31.46;21.58;101687.09;107703;1254;97713;-65
2024/04/13 12:02:07;;;;;;;;;;;;;;;30.68;22.35;101679.28;107508;1257;111370;-65
2024/04/13 12:04:35;;;;;;;;;;;;;;;30.40;22.67;101676.08;107641;1253;108497;-65
2024/04/13 12:07:04;;;;;;;;;;;;;;;30.11;23.14;101672.61;107625;1254;107881;-65
2024/04/13 12:09:32;;;;;;;;;;;;;;;30.12;23.57;101663.08;107656;1254;97747;-64
2024/04/13 12:12:00;;;;;;;;;;;;;;;30.23;23.61;101666.39;107647;1254;97816;-66
2024/04/13 12:14:30;;;;;;;;;;;;;;;30.18;23.84;101664.56;107493;1254;111159;-65
2024/04/13 12:17:14;;;;;;;;;;;;;;;30.09;24.03;101656.61;107626;1254;109308;-64
2024/04/13 12:19:45;;;;;;;;;;;;;;;30.29;23.77;101654.73;107623;1252;107386;-65
2024/04/13 12:22:13;;;;;;;;;;;;;;;30.36;23.81;101650.68;107580;1251;97857;-65
2024/04/13 12:24:41;;;;;;;;;;;;;;;30.37;23.76;101643.88;107619;1254;97928;-65
2024/04/13 12:27:10;;;;;;;;;;;;;;;30.47;23.41;101642.11;107628;1253;112045;-66
2024/04/13 12:29:38;;;;;;;;;;;;;;;30.31;23.42;101635.05;107677;1256;108381;-66
2024/04/13 12:32:06;;;;;;;;;;;;;;;29.94;23.62;101639.20;107586;1256;108228;-65